Time;durP1;ratioP1;P1;durP2;ratioP2;P2;SDS_P1;SDS_P2;PMS_P1;PMS_P2;Temp;Humidity;BMP_temperature;BMP_pressure;BME280_temperature;BME280_humidity;BME280_pressure;Samples;Min_cycle;Max_cycle;Signal;HPM_P1;HPM_P2
2022/11/17 00:01:56;;;;;;;17.23;10.45;;;;;;;;;;5043290;28;20900;-86
2022/11/17 00:04:24;;;;;;;15.75;9.90;;;;;;;;;;5028737;28;20499;-87
2022/11/17 00:06:50;;;;;;;22.15;11.30;;;;;;;;;;5043101;28;20048;-87
2022/11/17 00:09:16;;;;;;;19.25;11.77;;;;;;;;;;5029488;28;20043;-87
2022/11/17 00:14:35;;;;;;;10.07;8.52;;;;;;;;;;5037717;28;20059;-87
2022/11/17 00:17:06;;;;;;;13.70;9.00;;;;;;;;;;5041298;28;20049;-87
2022/11/17 00:22:17;;;;;;;14.05;8.75;;;;;;;;;;5042333;28;20055;-87
2022/11/17 00:24:43;;;;;;;14.90;9.65;;;;;;;;;;5040382;28;20225;-88
2022/11/17 00:27:11;;;;;;;17.85;9.27;;;;;;;;;;5006589;28;20062;-86
2022/11/17 00:29:38;;;;;;;15.38;9.52;;;;;;;;;;5023073;28;20765;-87
2022/11/17 00:34:49;;;;;;;13.77;8.88;;;;;;;;;;5018309;28;20106;-87
2022/11/17 00:37:15;;;;;;;13.95;9.90;;;;;;;;;;5034262;28;20059;-86
2022/11/17 00:39:41;;;;;;;16.80;11.20;;;;;;;;;;5013442;28;20044;-87
2022/11/17 00:42:07;;;;;;;12.27;8.65;;;;;;;;;;5038423;28;20036;-87
2022/11/17 00:44:34;;;;;;;14.70;9.15;;;;;;;;;;5036476;28;20736;-87
2022/11/17 00:47:00;;;;;;;14.93;9.52;;;;;;;;;;5033211;28;21134;-87
2022/11/17 00:49:26;;;;;;;18.30;11.07;;;;;;;;;;5017528;28;20040;-86
2022/11/17 00:51:52;;;;;;;16.38;9.88;;;;;;;;;;5015392;28;20150;-87
2022/11/17 00:54:19;;;;;;;11.45;9.15;;;;;;;;;;5038849;28;20099;-87
2022/11/17 00:56:45;;;;;;;11.55;8.77;;;;;;;;;;5043532;28;20602;-87
2022/11/17 00:59:11;;;;;;;13.48;9.23;;;;;;;;;;5027305;28;20049;-87
2022/11/17 01:01:38;;;;;;;14.35;9.48;;;;;;;;;;5041082;28;20053;-87
2022/11/17 01:04:05;;;;;;;11.68;8.82;;;;;;;;;;5049728;28;20083;-87
2022/11/17 01:06:33;;;;;;;11.77;8.18;;;;;;;;;;5043176;28;20937;-87
2022/11/17 01:09:00;;;;;;;13.38;10.25;;;;;;;;;;5041223;28;21767;-86
2022/11/17 01:11:26;;;;;;;16.95;9.27;;;;;;;;;;5039734;28;20063;-86
2022/11/17 01:13:53;;;;;;;14.38;9.40;;;;;;;;;;5042745;28;20145;-87
2022/11/17 01:16:20;;;;;;;12.50;8.30;;;;;;;;;;5021956;28;20048;-86
2022/11/17 01:18:47;;;;;;;10.63;8.57;;;;;;;;;;5025084;28;20511;-87
2022/11/17 01:21:20;;;;;;;12.40;8.48;;;;;;;;;;5026961;28;21376;-87
2022/11/17 01:23:51;;;;;;;13.82;9.27;;;;;;;;;;5044247;28;20044;-86
2022/11/17 01:26:18;;;;;;;14.73;9.20;;;;;;;;;;5044006;28;20076;-87
2022/11/17 01:28:45;;;;;;;14.85;10.73;;;;;;;;;;5049295;28;20057;-87
2022/11/17 01:31:12;;;;;;;10.43;7.72;;;;;;;;;;5051005;28;20048;-89
2022/11/17 01:33:38;;;;;;;13.27;9.23;;;;;;;;;;5039632;28;20049;-88
2022/11/17 01:36:06;;;;;;;13.40;8.27;;;;;;;;;;5024491;28;20116;-89
2022/11/17 01:38:33;;;;;;;10.68;7.47;;;;;;;;;;5028249;28;20116;-89
2022/11/17 01:40:59;;;;;;;12.07;8.63;;;;;;;;;;5061374;28;20080;-89
2022/11/17 01:43:39;;;;;;;12.13;7.78;;;;;;;;;;5042741;28;20048;-88
2022/11/17 01:46:07;;;;;;;15.65;8.18;;;;;;;;;;5031233;28;20052;-89
2022/11/17 01:48:34;;;;;;;12.82;8.23;;;;;;;;;;5026120;28;21110;-90
2022/11/17 01:51:00;;;;;;;13.07;8.32;;;;;;;;;;5043512;28;20155;-89
2022/11/17 01:53:27;;;;;;;10.27;7.05;;;;;;;;;;5050010;28;20375;-89
2022/11/17 01:55:55;;;;;;;12.52;7.97;;;;;;;;;;5032835;28;20040;-90
2022/11/17 01:58:29;;;;;;;13.30;8.13;;;;;;;;;;5030199;28;20044;-89
2022/11/17 02:00:55;;;;;;;17.42;8.32;;;;;;;;;;5050755;28;20359;-90
2022/11/17 02:03:22;;;;;;;14.15;8.05;;;;;;;;;;5053066;28;20737;-89
2022/11/17 02:05:54;;;;;;;14.68;7.60;;;;;;;;;;5032710;28;20045;-89
2022/11/17 02:08:22;;;;;;;16.35;8.02;;;;;;;;;;5033667;28;20044;-90
2022/11/17 02:10:49;;;;;;;14.32;9.40;;;;;;;;;;5048804;28;20053;-90
2022/11/17 02:13:15;;;;;;;15.02;8.52;;;;;;;;;;5029447;28;20044;-89
2022/11/17 02:15:41;;;;;;;14.65;7.95;;;;;;;;;;5025380;28;20051;-90
2022/11/17 02:18:08;;;;;;;14.52;9.00;;;;;;;;;;5028219;28;20045;-89
2022/11/17 02:20:51;;;;;;;16.63;9.43;;;;;;;;;;5049008;28;20041;-89
2022/11/17 02:23:20;;;;;;;17.90;8.30;;;;;;;;;;5028151;28;20043;-89
2022/11/17 02:25:52;;;;;;;14.93;8.20;;;;;;;;;;5048970;28;20071;-89
2022/11/17 02:28:25;;;;;;;12.68;8.60;;;;;;;;;;5046125;28;20376;-89
2022/11/17 02:30:58;;;;;;;13.82;8.68;;;;;;;;;;5028170;28;23433;-90
2022/11/17 02:33:27;;;;;;;15.13;9.23;;;;;;;;;;5044290;28;20672;-89
2022/11/17 02:35:53;;;;;;;14.90;9.32;;;;;;;;;;5045916;28;20052;-88
2022/11/17 02:38:25;;;;;;;19.63;9.70;;;;;;;;;;5033140;28;20144;-89
2022/11/17 02:41:04;;;;;;;16.92;10.07;;;;;;;;;;5044520;28;20044;-89
2022/11/17 02:44:05;;;;;;;12.60;9.88;;;;;;;;;;5047376;28;20650;-89
2022/11/17 02:46:41;;;;;;;18.73;10.13;;;;;;;;;;5043879;28;20052;-90
2022/11/17 02:49:13;;;;;;;12.73;8.20;;;;;;;;;;5029772;28;20055;-89
2022/11/17 02:51:40;;;;;;;12.65;9.27;;;;;;;;;;5031144;28;20224;-90
2022/11/17 02:54:07;;;;;;;17.90;10.85;;;;;;;;;;5044681;28;20048;-90
2022/11/17 02:56:33;;;;;;;14.55;9.02;;;;;;;;;;5026330;28;20664;-90
2022/11/17 02:59:01;;;;;;;16.33;8.95;;;;;;;;;;5030012;28;20044;-90
2022/11/17 03:01:30;;;;;;;14.82;10.13;;;;;;;;;;5032470;28;20136;-90
2022/11/17 03:04:17;;;;;;;17.83;8.80;;;;;;;;;;5028701;28;20067;-89
2022/11/17 03:06:43;;;;;;;15.10;8.98;;;;;;;;;;5019704;28;20040;-90
2022/11/17 03:09:18;;;;;;;16.95;9.82;;;;;;;;;;5039931;28;20079;-89
2022/11/17 03:11:59;;;;;;;21.15;10.05;;;;;;;;;;5023323;28;20060;-89
2022/11/17 03:14:29;;;;;;;15.45;10.00;;;;;;;;;;5043168;28;20055;-89
2022/11/17 03:17:15;;;;;;;15.68;10.05;;;;;;;;;;5034186;28;20044;-88
2022/11/17 03:19:44;;;;;;;13.68;9.85;;;;;;;;;;5040981;28;20045;-90
2022/11/17 03:22:33;;;;;;;17.25;9.50;;;;;;;;;;5023085;28;20147;-89
2022/11/17 03:25:02;;;;;;;14.18;10.55;;;;;;;;;;5021875;28;20303;-90
2022/11/17 03:27:38;;;;;;;17.05;11.38;;;;;;;;;;5028407;28;20633;-89
2022/11/17 03:30:06;;;;;;;13.35;8.50;;;;;;;;;;5034345;28;20044;-90
2022/11/17 03:32:35;;;;;;;15.05;9.77;;;;;;;;;;5027807;28;20041;-88
2022/11/17 03:35:07;;;;;;;9.68;8.10;;;;;;;;;;5025883;28;20067;-89
2022/11/17 03:37:34;;;;;;;11.55;9.43;;;;;;;;;;5031417;28;20254;-88
2022/11/17 03:40:04;;;;;;;15.13;10.98;;;;;;;;;;5043574;28;20076;-90
2022/11/17 03:42:31;;;;;;;12.63;9.32;;;;;;;;;;5021304;28;20131;-90
2022/11/17 03:45:06;;;;;;;18.25;11.48;;;;;;;;;;5025536;28;20045;-90
2022/11/17 03:47:33;;;;;;;17.08;10.13;;;;;;;;;;5025704;28;20052;-90
2022/11/17 03:50:01;;;;;;;16.10;9.77;;;;;;;;;;5024623;28;20041;-90
2022/11/17 03:52:29;;;;;;;14.18;9.45;;;;;;;;;;5028880;28;21754;-89
2022/11/17 03:54:55;;;;;;;15.95;9.50;;;;;;;;;;5044106;28;20369;-90
2022/11/17 03:57:29;;;;;;;16.65;10.52;;;;;;;;;;5019779;28;20036;-89
2022/11/17 04:00:15;;;;;;;14.93;9.90;;;;;;;;;;5043025;28;20075;-90
2022/11/17 04:02:46;;;;;;;13.25;8.95;;;;;;;;;;5033255;28;20974;-89
2022/11/17 04:05:13;;;;;;;14.15;8.90;;;;;;;;;;5019722;28;20053;-90
2022/11/17 04:07:46;;;;;;;11.77;9.10;;;;;;;;;;5044469;28;20047;-90
2022/11/17 04:10:13;;;;;;;14.23;9.90;;;;;;;;;;5013435;28;20052;-91
2022/11/17 04:18:10;;;;;;;12.82;10.30;;;;;;;;;;5041321;28;20133;-91
2022/11/17 04:20:36;;;;;;;16.38;11.55;;;;;;;;;;5035105;28;20635;-91
2022/11/17 04:23:06;;;;;;;20.00;12.65;;;;;;;;;;5043035;28;20064;-92
2022/11/17 04:28:36;;;;;;;;;;;;;;;;;;5040757;28;20045;-92
2022/11/17 04:31:22;;;;;;;22.60;12.18;;;;;;;;;;5040939;28;20160;-92
2022/11/17 04:33:49;;;;;;;16.95;9.98;;;;;;;;;;5026632;28;20618;-94
2022/11/17 04:36:17;;;;;;;17.17;11.25;;;;;;;;;;5033134;28;20199;-93
2022/11/17 04:38:45;;;;;;;26.10;10.60;;;;;;;;;;5033790;28;20511;-94
2022/11/17 04:43:57;;;;;;;17.80;9.85;;;;;;;;;;5048953;28;20529;-94
2022/11/17 04:46:24;;;;;;;24.58;10.77;;;;;;;;;;5021737;28;20693;-94
2022/11/17 04:48:51;;;;;;;20.42;11.80;;;;;;;;;;5048049;28;20083;-95
2022/11/17 04:51:17;;;;;;;14.48;9.10;;;;;;;;;;5036639;28;20071;-95
2022/11/17 04:53:44;;;;;;;22.90;12.40;;;;;;;;;;5012231;28;20771;-93
2022/11/17 04:56:10;;;;;;;12.77;8.85;;;;;;;;;;5014123;28;20119;-94
2022/11/17 04:58:36;;;;;;;19.83;10.43;;;;;;;;;;5032108;28;20041;-95
2022/11/17 05:01:12;;;;;;;15.35;11.13;;;;;;;;;;5027307;28;20071;-94
2022/11/17 05:04:02;;;;;;;21.77;10.77;;;;;;;;;;5032390;28;20580;-95
2022/11/17 05:06:30;;;;;;;16.38;9.65;;;;;;;;;;5021609;28;20076;-94
2022/11/17 05:08:57;;;;;;;19.92;9.88;;;;;;;;;;5029880;28;20102;-96
2022/11/17 05:14:11;;;;;;;23.60;7.88;;;;;;;;;;5046873;28;20279;-94
2022/11/17 05:19:22;;;;;;;;;;;;;;;;;;5037256;28;20048;-93
2022/11/17 05:21:48;;;;;;;11.20;7.43;;;;;;;;;;5036054;28;19931;-92
2022/11/17 05:24:14;;;;;;;11.32;7.35;;;;;;;;;;5027519;28;20055;-94
2022/11/17 05:26:42;;;;;;;12.07;7.65;;;;;;;;;;5048358;28;20079;-94
2022/11/17 05:29:09;;;;;;;15.32;9.13;;;;;;;;;;5024220;28;20045;-93
2022/11/17 05:31:35;;;;;;;14.00;7.78;;;;;;;;;;5007072;28;20055;-95
2022/11/17 05:34:01;;;;;;;21.77;10.73;;;;;;;;;;5025161;28;20069;-94
2022/11/17 05:36:28;;;;;;;18.73;9.00;;;;;;;;;;5040320;28;20500;-94
2022/11/17 05:38:55;;;;;;;16.48;8.52;;;;;;;;;;5013970;28;20048;-93
2022/11/17 05:41:21;;;;;;;18.17;8.23;;;;;;;;;;5003937;28;20063;-94
2022/11/17 05:43:49;;;;;;;21.65;8.00;;;;;;;;;;5017488;28;20303;-93
2022/11/17 05:46:15;;;;;;;10.70;6.32;;;;;;;;;;5026586;28;20548;-93
2022/11/17 05:48:41;;;;;;;11.68;7.50;;;;;;;;;;5021213;28;20383;-93
2022/11/17 05:51:09;;;;;;;15.95;8.80;;;;;;;;;;5020965;28;20100;-92
2022/11/17 05:53:35;;;;;;;18.35;8.07;;;;;;;;;;5027342;28;20783;-96
2022/11/17 05:56:20;;;;;;;17.05;8.15;;;;;;;;;;5012206;28;20090;-95
2022/11/17 05:58:49;;;;;;;18.98;8.18;;;;;;;;;;5027141;28;20052;-96
2022/11/17 06:01:16;;;;;;;13.75;7.47;;;;;;;;;;5030347;28;20052;-95
2022/11/17 06:03:45;;;;;;;15.15;8.70;;;;;;;;;;5030554;28;20048;-95
2022/11/17 06:06:12;;;;;;;9.60;7.32;;;;;;;;;;5033762;28;20555;-94
2022/11/17 06:08:38;;;;;;;17.52;7.63;;;;;;;;;;5022129;28;20055;-95
2022/11/17 06:11:05;;;;;;;14.32;8.02;;;;;;;;;;5031980;28;20748;-95
2022/11/17 06:13:31;;;;;;;18.63;8.98;;;;;;;;;;5028924;28;20048;-93
2022/11/17 06:15:59;;;;;;;13.30;7.63;;;;;;;;;;5024704;28;20072;-95
2022/11/17 06:18:28;;;;;;;17.52;9.23;;;;;;;;;;5026514;28;20044;-95
2022/11/17 06:20:54;;;;;;;19.00;9.10;;;;;;;;;;5031668;28;20040;-93
2022/11/17 06:23:22;;;;;;;13.68;8.68;;;;;;;;;;5027927;28;20073;-92
2022/11/17 06:25:48;;;;;;;19.65;10.05;;;;;;;;;;5026591;28;20045;-93
2022/11/17 06:28:16;;;;;;;21.27;8.77;;;;;;;;;;5043822;28;20056;-93
2022/11/17 06:30:43;;;;;;;14.82;8.93;;;;;;;;;;5030819;28;20040;-93
2022/11/17 06:33:11;;;;;;;21.73;8.70;;;;;;;;;;5022983;28;20149;-93
2022/11/17 06:35:38;;;;;;;19.88;9.75;;;;;;;;;;5026948;28;20048;-93
2022/11/17 06:38:04;;;;;;;21.23;10.43;;;;;;;;;;5018081;28;20112;-93
2022/11/17 06:40:30;;;;;;;22.25;11.85;;;;;;;;;;5033420;28;20175;-95
2022/11/17 06:43:02;;;;;;;16.27;10.73;;;;;;;;;;5037282;28;20067;-94
2022/11/17 06:45:35;;;;;;;21.80;10.70;;;;;;;;;;5044965;28;20052;-94
2022/11/17 06:48:01;;;;;;;22.55;10.63;;;;;;;;;;5035996;28;21741;-95
2022/11/17 06:50:28;;;;;;;15.32;8.18;;;;;;;;;;5043435;28;20037;-94
2022/11/17 06:52:58;;;;;;;18.45;10.00;;;;;;;;;;5043954;28;20041;-96
2022/11/17 06:55:24;;;;;;;22.58;10.15;;;;;;;;;;5039592;28;20108;-96
2022/11/17 06:57:51;;;;;;;18.90;9.77;;;;;;;;;;5043877;28;20040;-96
2022/11/17 07:00:17;;;;;;;26.83;11.23;;;;;;;;;;5065071;28;20503;-96
2022/11/17 07:02:48;;;;;;;15.55;9.27;;;;;;;;;;5063533;28;20082;-95
2022/11/17 07:05:14;;;;;;;18.70;11.30;;;;;;;;;;5029562;28;20037;-95
2022/11/17 07:07:40;;;;;;;13.23;10.23;;;;;;;;;;5035193;28;20044;-96
2022/11/17 07:10:12;;;;;;;15.77;9.38;;;;;;;;;;5037505;28;20052;-95
2022/11/17 07:12:38;;;;;;;20.52;9.65;;;;;;;;;;5028296;28;20834;-96
2022/11/17 07:15:05;;;;;;;16.92;8.45;;;;;;;;;;5046075;28;20059;-96
2022/11/17 07:17:31;;;;;;;17.60;9.95;;;;;;;;;;5050937;28;20040;-96
2022/11/17 07:20:00;;;;;;;13.98;10.27;;;;;;;;;;5057719;28;20040;-96
2022/11/17 07:22:29;;;;;;;21.13;9.75;;;;;;;;;;5058536;28;20041;-96
2022/11/17 07:24:55;;;;;;;20.27;9.57;;;;;;;;;;5039604;28;20074;-93
2022/11/17 07:27:21;;;;;;;21.17;10.80;;;;;;;;;;5040736;28;20077;-94
2022/11/17 07:29:47;;;;;;;16.40;9.73;;;;;;;;;;5032701;28;20064;-92
2022/11/17 07:32:14;;;;;;;19.10;11.02;;;;;;;;;;5032442;28;20048;-93
2022/11/17 07:34:41;;;;;;;24.17;11.82;;;;;;;;;;5022287;28;20047;-92
2022/11/17 07:37:07;;;;;;;22.58;11.65;;;;;;;;;;5028283;28;21617;-92
2022/11/17 07:39:33;;;;;;;33.75;11.73;;;;;;;;;;5032994;28;20068;-93
2022/11/17 07:42:00;;;;;;;23.08;12.45;;;;;;;;;;5041344;28;20063;-91
2022/11/17 07:44:26;;;;;;;27.52;11.25;;;;;;;;;;5022805;28;20099;-91
2022/11/17 07:46:52;;;;;;;25.92;12.70;;;;;;;;;;5027763;28;20163;-89
2022/11/17 07:49:18;;;;;;;17.08;10.77;;;;;;;;;;5015621;28;20067;-90
2022/11/17 07:51:44;;;;;;;20.67;11.35;;;;;;;;;;5025139;28;20041;-90
2022/11/17 07:54:10;;;;;;;16.33;9.48;;;;;;;;;;5022716;28;20050;-90
2022/11/17 07:56:36;;;;;;;19.60;9.73;;;;;;;;;;5026280;28;20135;-91
2022/11/17 07:59:03;;;;;;;13.18;8.95;;;;;;;;;;5006728;28;20041;-91
2022/11/17 08:01:29;;;;;;;12.73;8.00;;;;;;;;;;5023568;28;20052;-92
2022/11/17 08:03:55;;;;;;;11.82;7.47;;;;;;;;;;5025635;28;20149;-91
2022/11/17 08:06:22;;;;;;;10.43;7.80;;;;;;;;;;5015980;28;20230;-92
2022/11/17 08:08:49;;;;;;;14.82;8.93;;;;;;;;;;5017841;28;20051;-91
2022/11/17 08:11:15;;;;;;;12.75;7.55;;;;;;;;;;5004122;28;20037;-92
2022/11/17 08:13:41;;;;;;;16.50;7.82;;;;;;;;;;5027620;28;20051;-91
2022/11/17 08:16:08;;;;;;;13.48;7.47;;;;;;;;;;5017007;28;20151;-91
2022/11/17 08:18:35;;;;;;;11.85;7.47;;;;;;;;;;5015651;28;20048;-93
2022/11/17 08:21:02;;;;;;;13.95;7.65;;;;;;;;;;5015713;28;20049;-92
2022/11/17 08:23:28;;;;;;;8.82;6.85;;;;;;;;;;5017915;28;20044;-91
2022/11/17 08:25:56;;;;;;;12.55;8.20;;;;;;;;;;5015876;28;20056;-91
2022/11/17 08:28:22;;;;;;;9.65;6.28;;;;;;;;;;5020325;28;20163;-91
2022/11/17 08:30:48;;;;;;;10.60;6.88;;;;;;;;;;5013914;28;20154;-92
2022/11/17 08:33:14;;;;;;;9.73;7.22;;;;;;;;;;5026258;28;20087;-91
2022/11/17 08:35:41;;;;;;;9.50;6.65;;;;;;;;;;5020738;28;20175;-91
2022/11/17 08:38:10;;;;;;;10.70;7.38;;;;;;;;;;5014521;28;20056;-91
2022/11/17 08:40:36;;;;;;;11.15;7.47;;;;;;;;;;5001989;28;20044;-92
2022/11/17 08:43:03;;;;;;;13.40;7.75;;;;;;;;;;5032114;28;20064;-91
2022/11/17 08:45:30;;;;;;;9.35;6.65;;;;;;;;;;5014602;28;20284;-91
2022/11/17 08:47:56;;;;;;;9.23;7.22;;;;;;;;;;4996012;28;20104;-90
2022/11/17 08:50:22;;;;;;;10.95;6.65;;;;;;;;;;5023817;28;20634;-91
2022/11/17 08:52:48;;;;;;;10.55;7.93;;;;;;;;;;5016301;28;20108;-91
2022/11/17 08:55:15;;;;;;;7.85;7.03;;;;;;;;;;5021633;28;20044;-91
2022/11/17 08:57:41;;;;;;;12.20;7.72;;;;;;;;;;5016530;28;20045;-92
2022/11/17 09:00:08;;;;;;;9.25;6.90;;;;;;;;;;5005786;28;20053;-91
2022/11/17 09:02:34;;;;;;;17.13;7.90;;;;;;;;;;5022578;28;20044;-91
2022/11/17 09:05:00;;;;;;;11.07;7.00;;;;;;;;;;5023396;28;20055;-91
2022/11/17 09:07:27;;;;;;;11.70;7.00;;;;;;;;;;5031361;28;20049;-91
2022/11/17 09:09:57;;;;;;;11.38;7.88;;;;;;;;;;5045704;28;20637;-90
2022/11/17 09:12:23;;;;;;;10.57;8.65;;;;;;;;;;5018593;28;20138;-92
2022/11/17 09:14:49;;;;;;;9.25;7.13;;;;;;;;;;5016058;28;21209;-92
2022/11/17 09:17:15;;;;;;;14.35;9.57;;;;;;;;;;5024280;28;20040;-92
2022/11/17 09:19:41;;;;;;;14.35;8.25;;;;;;;;;;5022350;28;20053;-92
2022/11/17 09:22:08;;;;;;;11.18;8.75;;;;;;;;;;5017087;28;20618;-91
2022/11/17 09:24:34;;;;;;;13.15;8.65;;;;;;;;;;5031936;28;20044;-90
2022/11/17 09:27:02;;;;;;;11.30;7.85;;;;;;;;;;5026165;28;20077;-91
2022/11/17 09:29:28;;;;;;;15.70;9.63;;;;;;;;;;5025585;28;20048;-91
2022/11/17 09:31:55;;;;;;;14.50;9.45;;;;;;;;;;5040254;28;20044;-90
2022/11/17 09:34:21;;;;;;;25.13;10.48;;;;;;;;;;5027164;28;20048;-91
2022/11/17 09:36:50;;;;;;;13.43;9.30;;;;;;;;;;5016544;28;20060;-91
2022/11/17 09:39:16;;;;;;;20.00;10.05;;;;;;;;;;5028794;28;20045;-92
2022/11/17 09:41:43;;;;;;;12.50;9.20;;;;;;;;;;5035730;28;20132;-92
2022/11/17 09:44:19;;;;;;;18.17;10.57;;;;;;;;;;5046840;28;20692;-91
2022/11/17 09:47:04;;;;;;;14.18;10.02;;;;;;;;;;5038050;28;20036;-92
2022/11/17 09:49:53;;;;;;;10.23;8.55;;;;;;;;;;5029509;28;20052;-92
2022/11/17 09:52:42;;;;;;;16.13;11.32;;;;;;;;;;5027453;28;20040;-91
2022/11/17 09:55:08;;;;;;;18.70;10.93;;;;;;;;;;5026227;28;20072;-92
2022/11/17 09:57:38;;;;;;;15.75;11.77;;;;;;;;;;5045787;28;20063;-92
2022/11/17 10:00:12;;;;;;;20.15;13.32;;;;;;;;;;5032015;28;20092;-91
2022/11/17 10:02:38;;;;;;;15.85;10.57;;;;;;;;;;5034675;28;20622;-90
2022/11/17 10:05:05;;;;;;;18.77;11.70;;;;;;;;;;5057083;28;20199;-92
2022/11/17 10:07:33;;;;;;;18.88;10.40;;;;;;;;;;5030187;28;20036;-90
2022/11/17 10:10:02;;;;;;;17.30;10.98;;;;;;;;;;5031653;28;20037;-91
2022/11/17 10:12:33;;;;;;;16.10;11.35;;;;;;;;;;5033111;28;20044;-92
2022/11/17 10:15:16;;;;;;;17.40;11.95;;;;;;;;;;5033342;28;20102;-91
2022/11/17 10:17:42;;;;;;;15.27;10.75;;;;;;;;;;5036206;28;20048;-92
2022/11/17 10:20:16;;;;;;;19.92;12.20;;;;;;;;;;5013779;28;20033;-90
2022/11/17 10:22:42;;;;;;;18.13;10.95;;;;;;;;;;5030922;28;20175;-94
2022/11/17 10:25:41;;;;;;;14.63;10.18;;;;;;;;;;5015860;28;20094;-92
2022/11/17 10:28:17;;;;;;;13.50;8.98;;;;;;;;;;4997022;28;20059;-92
2022/11/17 10:30:52;;;;;;;16.00;10.57;;;;;;;;;;5030956;28;20056;-92
2022/11/17 10:33:31;;;;;;;18.08;11.70;;;;;;;;;;5035729;28;20123;-92
2022/11/17 10:35:58;;;;;;;18.33;10.05;;;;;;;;;;5033710;28;20451;-92
2022/11/17 10:38:27;;;;;;;14.80;9.07;;;;;;;;;;5057564;28;20048;-92
2022/11/17 10:40:57;;;;;;;14.93;9.25;;;;;;;;;;5058732;28;20121;-92
2022/11/17 10:43:28;;;;;;;14.05;8.68;;;;;;;;;;5050325;28;20044;-92
2022/11/17 10:45:56;;;;;;;17.73;9.30;;;;;;;;;;5053837;28;20066;-92
2022/11/17 10:48:32;;;;;;;14.05;9.63;;;;;;;;;;5076490;28;20108;-92
2022/11/17 10:50:59;;;;;;;20.23;11.13;;;;;;;;;;5059307;28;20040;-93
2022/11/17 10:53:30;;;;;;;20.75;11.23;;;;;;;;;;5055876;28;20037;-93
2022/11/17 10:55:59;;;;;;;15.60;10.13;;;;;;;;;;5074671;28;20048;-93
2022/11/17 10:58:30;;;;;;;17.55;10.40;;;;;;;;;;5075494;28;20067;-93
2022/11/17 11:00:58;;;;;;;17.35;9.13;;;;;;;;;;5056210;28;20045;-93
2022/11/17 11:03:27;;;;;;;15.85;11.98;;;;;;;;;;5045634;28;20053;-91
2022/11/17 11:05:57;;;;;;;16.63;11.85;;;;;;;;;;5053865;28;20154;-92
2022/11/17 11:08:35;;;;;;;15.43;10.00;;;;;;;;;;5057552;28;20044;-93
2022/11/17 11:11:03;;;;;;;13.60;10.10;;;;;;;;;;5068249;28;20165;-92
2022/11/17 11:13:36;;;;;;;14.10;11.35;;;;;;;;;;5056399;28;20044;-92
2022/11/17 11:16:03;;;;;;;13.35;11.10;;;;;;;;;;5052693;28;20033;-91
2022/11/17 11:18:30;;;;;;;14.68;11.43;;;;;;;;;;5056291;28;20054;-92
2022/11/17 11:20:58;;;;;;;18.25;10.70;;;;;;;;;;5052392;28;20364;-92
2022/11/17 11:23:34;;;;;;;17.80;12.25;;;;;;;;;;5051778;28;20461;-92
2022/11/17 11:26:09;;;;;;;12.52;10.27;;;;;;;;;;5057259;28;20096;-93
2022/11/17 11:28:54;;;;;;;14.60;10.70;;;;;;;;;;5071700;28;20196;-92
2022/11/17 11:31:32;;;;;;;11.77;9.65;;;;;;;;;;5062068;28;20076;-92
2022/11/17 11:34:14;;;;;;;12.90;10.23;;;;;;;;;;5056711;28;20527;-92
2022/11/17 11:36:59;;;;;;;12.85;10.55;;;;;;;;;;5049731;28;20083;-92
2022/11/17 11:39:27;;;;;;;15.10;11.15;;;;;;;;;;5061576;28;20090;-92
2022/11/17 11:42:00;;;;;;;21.45;11.57;;;;;;;;;;5054246;28;20079;-92
2022/11/17 11:44:41;;;;;;;14.23;10.13;;;;;;;;;;5059609;28;20122;-93
2022/11/17 11:47:07;;;;;;;13.88;10.82;;;;;;;;;;5063644;28;20334;-94
2022/11/17 11:49:39;;;;;;;16.35;12.18;;;;;;;;;;5054604;28;20799;-94
2022/11/17 11:52:10;;;;;;;16.20;12.82;;;;;;;;;;5058919;28;20053;-92
2022/11/17 11:54:39;;;;;;;14.55;10.00;;;;;;;;;;5051487;28;20032;-93
2022/11/17 11:57:05;;;;;;;17.30;11.02;;;;;;;;;;5046106;28;20049;-93
2022/11/17 11:59:47;;;;;;;13.95;9.65;;;;;;;;;;5056437;28;20044;-93
2022/11/17 12:02:13;;;;;;;13.48;10.57;;;;;;;;;;5046721;28;20074;-93
2022/11/17 12:04:48;;;;;;;20.48;12.68;;;;;;;;;;5057852;28;20052;-93
2022/11/17 12:07:21;;;;;;;13.05;10.23;;;;;;;;;;5047788;28;20040;-93
2022/11/17 12:10:06;;;;;;;11.95;8.50;;;;;;;;;;5055681;28;20044;-93
2022/11/17 12:12:36;;;;;;;11.77;9.63;;;;;;;;;;5077275;28;20033;-93
2022/11/17 12:15:07;;;;;;;14.98;9.05;;;;;;;;;;5052777;28;20055;-94
2022/11/17 12:17:34;;;;;;;17.38;10.75;;;;;;;;;;5065632;28;20056;-94
2022/11/17 12:20:02;;;;;;;18.52;12.45;;;;;;;;;;5047384;28;20053;-94
2022/11/17 12:22:32;;;;;;;18.77;11.98;;;;;;;;;;5054915;28;20066;-94
2022/11/17 12:25:00;;;;;;;21.02;12.30;;;;;;;;;;5064929;28;20053;-94
2022/11/17 12:27:35;;;;;;;16.73;12.32;;;;;;;;;;5060505;28;20426;-94
2022/11/17 12:30:03;;;;;;;14.40;12.43;;;;;;;;;;5059649;28;21685;-93
2022/11/17 12:32:52;;;;;;;19.48;12.68;;;;;;;;;;5056937;28;20062;-92
2022/11/17 12:35:26;;;;;;;16.65;11.75;;;;;;;;;;5052957;28;20052;-92
2022/11/17 12:37:52;;;;;;;;;;;;;;;;;;5061400;28;20044;-92
2022/11/17 12:40:51;;;;;;;15.05;11.85;;;;;;;;;;5072535;28;19931;-92
2022/11/17 12:43:25;;;;;;;22.05;13.02;;;;;;;;;;5031135;28;20063;-92
2022/11/17 12:45:54;;;;;;;17.20;12.60;;;;;;;;;;5054191;28;20087;-93
2022/11/17 12:48:20;;;;;;;18.58;12.25;;;;;;;;;;5058603;28;20040;-93
2022/11/17 12:50:56;;;;;;;15.82;11.32;;;;;;;;;;5044335;28;20094;-92
2022/11/17 12:53:25;;;;;;;19.52;13.60;;;;;;;;;;5061434;28;20040;-93
2022/11/17 12:56:00;;;;;;;15.63;12.02;;;;;;;;;;5059880;28;20037;-92
2022/11/17 12:58:46;;;;;;;19.17;13.00;;;;;;;;;;5059687;28;20037;-92
2022/11/17 13:01:19;;;;;;;16.17;12.30;;;;;;;;;;5054453;28;20057;-92
2022/11/17 13:04:00;;;;;;;15.65;13.15;;;;;;;;;;5058744;28;20070;-93
2022/11/17 13:06:27;;;;;;;14.77;11.98;;;;;;;;;;5074576;28;20059;-92
2022/11/17 13:08:58;;;;;;;13.48;11.15;;;;;;;;;;5048943;28;20044;-92
2022/11/17 13:11:30;;;;;;;17.10;12.93;;;;;;;;;;5069912;28;20172;-91
2022/11/17 13:14:14;;;;;;;13.82;10.88;;;;;;;;;;5059256;28;20043;-92
2022/11/17 13:16:50;;;;;;;12.85;10.75;;;;;;;;;;5070412;28;20074;-91
2022/11/17 13:19:35;;;;;;;12.63;11.35;;;;;;;;;;5060851;28;20064;-92
2022/11/17 13:22:05;;;;;;;19.20;12.30;;;;;;;;;;5058158;28;20139;-91
2022/11/17 13:24:32;;;;;;;14.43;11.98;;;;;;;;;;5051178;28;20048;-91
2022/11/17 13:27:01;;;;;;;15.05;11.10;;;;;;;;;;5072183;28;20159;-92
2022/11/17 13:29:27;;;;;;;14.00;11.88;;;;;;;;;;5057984;28;20044;-92
2022/11/17 13:32:12;;;;;;;13.30;11.38;;;;;;;;;;5042126;28;20040;-92
2022/11/17 13:34:46;;;;;;;15.75;13.30;;;;;;;;;;5058227;28;20044;-91
2022/11/17 13:37:23;;;;;;;16.13;12.40;;;;;;;;;;5039770;28;20070;-91
2022/11/17 13:39:55;;;;;;;14.88;10.38;;;;;;;;;;5055404;28;20387;-91
2022/11/17 13:42:23;;;;;;;15.95;11.30;;;;;;;;;;5057613;28;20316;-92
2022/11/17 13:44:49;;;;;;;13.77;10.70;;;;;;;;;;5056354;28;20083;-93
2022/11/17 13:47:19;;;;;;;18.23;11.98;;;;;;;;;;5058877;28;20041;-92
2022/11/17 13:49:46;;;;;;;17.13;12.30;;;;;;;;;;5053633;28;20045;-92
2022/11/17 13:52:23;;;;;;;17.00;11.80;;;;;;;;;;5061415;28;20100;-92
2022/11/17 13:54:49;;;;;;;20.90;12.30;;;;;;;;;;5051690;28;20141;-92
2022/11/17 13:57:22;;;;;;;18.30;12.23;;;;;;;;;;5061283;28;20048;-93
2022/11/17 13:59:49;;;;;;;16.33;11.65;;;;;;;;;;5058938;28;20060;-93
2022/11/17 14:02:18;;;;;;;17.55;11.80;;;;;;;;;;5033061;28;20043;-93
2022/11/17 14:05:03;;;;;;;14.90;12.10;;;;;;;;;;5057972;28;20723;-92
2022/11/17 14:07:31;;;;;;;23.30;14.70;;;;;;;;;;5057239;28;20551;-92
2022/11/17 14:10:16;;;;;;;14.18;12.68;;;;;;;;;;5048729;28;20107;-93
2022/11/17 14:12:43;;;;;;;14.95;12.05;;;;;;;;;;5055098;28;20044;-94
2022/11/17 14:15:14;;;;;;;24.90;11.15;;;;;;;;;;5073867;28;20619;-93
2022/11/17 14:17:40;;;;;;;18.10;13.40;;;;;;;;;;5061324;28;20067;-93
2022/11/17 14:20:30;;;;;;;12.50;10.98;;;;;;;;;;5074095;28;20041;-93
2022/11/17 14:23:04;;;;;;;16.25;12.20;;;;;;;;;;5045766;28;20087;-93
2022/11/17 14:25:33;;;;;;;13.70;10.50;;;;;;;;;;5062778;28;20059;-93
2022/11/17 14:28:00;;;;;;;14.05;11.25;;;;;;;;;;5060940;28;20048;-92
2022/11/17 14:30:26;;;;;;;15.48;11.15;;;;;;;;;;5062185;28;20705;-93
2022/11/17 14:32:52;;;;;;;15.10;10.32;;;;;;;;;;5060410;28;20119;-92
2022/11/17 14:35:19;;;;;;;10.57;8.43;;;;;;;;;;5046617;28;20047;-93
2022/11/17 14:37:45;;;;;;;12.05;10.10;;;;;;;;;;5049708;28;20033;-93
2022/11/17 14:40:12;;;;;;;14.30;8.25;;;;;;;;;;5048330;28;20074;-91
2022/11/17 14:42:41;;;;;;;13.10;8.85;;;;;;;;;;5056820;28;20045;-91
2022/11/17 14:45:08;;;;;;;9.38;8.40;;;;;;;;;;5055169;28;20068;-91
2022/11/17 14:47:34;;;;;;;11.52;7.18;;;;;;;;;;5048837;28;20117;-91
2022/11/17 14:50:00;;;;;;;11.82;8.55;;;;;;;;;;5058613;28;20100;-91
2022/11/17 14:52:26;;;;;;;10.60;7.32;;;;;;;;;;5072536;28;20044;-91
2022/11/17 14:54:53;;;;;;;7.78;6.35;;;;;;;;;;5049884;28;20453;-91
2022/11/17 14:57:19;;;;;;;8.63;6.68;;;;;;;;;;5074609;28;21808;-91
2022/11/17 14:59:45;;;;;;;6.40;5.80;;;;;;;;;;5060830;28;20781;-91
2022/11/17 15:02:11;;;;;;;10.63;6.57;;;;;;;;;;5070771;28;20059;-91
2022/11/17 15:04:40;;;;;;;9.80;5.70;;;;;;;;;;5048267;28;20049;-91
2022/11/17 15:07:06;;;;;;;8.88;6.43;;;;;;;;;;5043642;28;20188;-90